sensor_id;sensor_type;location;lat;lon;timestamp;temperature;humidity
52787;DHT22;38661;53.152;5.846;2023-08-06T00:00:25;14.20;94.70
52787;DHT22;38661;53.152;5.846;2023-08-06T00:02:51;14.20;94.80
52787;DHT22;38661;53.152;5.846;2023-08-06T00:05:17;14.20;94.70
52787;DHT22;38661;53.152;5.846;2023-08-06T00:07:49;14.20;94.80
52787;DHT22;38661;53.152;5.846;2023-08-06T00:10:15;14.20;94.80
52787;DHT22;38661;53.152;5.846;2023-08-06T00:12:41;14.20;94.80
52787;DHT22;38661;53.152;5.846;2023-08-06T00:15:07;14.30;94.70
52787;DHT22;38661;53.152;5.846;2023-08-06T00:17:34;14.20;94.70
52787;DHT22;38661;53.152;5.846;2023-08-06T00:20:00;14.30;94.70
52787;DHT22;38661;53.152;5.846;2023-08-06T00:22:37;14.20;94.80
52787;DHT22;38661;53.152;5.846;2023-08-06T00:25:04;14.20;94.70
52787;DHT22;38661;53.152;5.846;2023-08-06T00:27:30;14.20;94.70
52787;DHT22;38661;53.152;5.846;2023-08-06T00:29:56;14.30;94.70
52787;DHT22;38661;53.152;5.846;2023-08-06T00:32:22;14.30;94.70
52787;DHT22;38661;53.152;5.846;2023-08-06T00:34:48;14.30;94.70
52787;DHT22;38661;53.152;5.846;2023-08-06T00:37:16;14.30;94.70
52787;DHT22;38661;53.152;5.846;2023-08-06T00:39:42;14.30;94.70
52787;DHT22;38661;53.152;5.846;2023-08-06T00:42:08;14.30;94.80
52787;DHT22;38661;53.152;5.846;2023-08-06T00:44:34;14.30;94.90
52787;DHT22;38661;53.152;5.846;2023-08-06T00:47:00;14.30;94.90
52787;DHT22;38661;53.152;5.846;2023-08-06T00:49:27;14.30;94.90
52787;DHT22;38661;53.152;5.846;2023-08-06T00:51:52;14.30;94.90
52787;DHT22;38661;53.152;5.846;2023-08-06T00:54:18;14.30;94.80
52787;DHT22;38661;53.152;5.846;2023-08-06T00:56:44;14.30;94.80
52787;DHT22;38661;53.152;5.846;2023-08-06T00:59:12;14.30;94.80
52787;DHT22;38661;53.152;5.846;2023-08-06T01:01:38;14.40;94.80
52787;DHT22;38661;53.152;5.846;2023-08-06T01:04:03;14.40;94.90
52787;DHT22;38661;53.152;5.846;2023-08-06T01:12:09;14.40;94.80
52787;DHT22;38661;53.152;5.846;2023-08-06T01:17:30;14.50;94.90
52787;DHT22;38661;53.152;5.846;2023-08-06T01:19:56;14.50;94.80
52787;DHT22;38661;53.152;5.846;2023-08-06T01:22:21;14.50;94.80
52787;DHT22;38661;53.152;5.846;2023-08-06T01:24:50;14.50;94.90
52787;DHT22;38661;53.152;5.846;2023-08-06T01:27:38;14.50;94.90
52787;DHT22;38661;53.152;5.846;2023-08-06T01:30:20;14.40;94.90
52787;DHT22;38661;53.152;5.846;2023-08-06T01:32:50;14.50;94.90
52787;DHT22;38661;53.152;5.846;2023-08-06T01:35:19;14.40;95.00
52787;DHT22;38661;53.152;5.846;2023-08-06T01:37:47;14.50;95.00
52787;DHT22;38661;53.152;5.846;2023-08-06T01:40:14;14.40;95.00
52787;DHT22;38661;53.152;5.846;2023-08-06T01:42:40;14.40;95.00
52787;DHT22;38661;53.152;5.846;2023-08-06T01:45:09;14.50;95.00
52787;DHT22;38661;53.152;5.846;2023-08-06T01:47:35;14.40;95.00
52787;DHT22;38661;53.152;5.846;2023-08-06T01:50:01;14.40;95.00
52787;DHT22;38661;53.152;5.846;2023-08-06T01:52:27;14.40;95.10
52787;DHT22;38661;53.152;5.846;2023-08-06T01:54:53;14.40;95.00
52787;DHT22;38661;53.152;5.846;2023-08-06T01:57:19;14.40;95.00
52787;DHT22;38661;53.152;5.846;2023-08-06T01:59:45;14.40;95.10
52787;DHT22;38661;53.152;5.846;2023-08-06T02:02:10;14.40;95.10
52787;DHT22;38661;53.152;5.846;2023-08-06T02:04:36;14.40;95.10
52787;DHT22;38661;53.152;5.846;2023-08-06T02:07:02;14.40;95.10
52787;DHT22;38661;53.152;5.846;2023-08-06T02:09:27;14.40;95.00
52787;DHT22;38661;53.152;5.846;2023-08-06T02:11:53;14.30;95.00
52787;DHT22;38661;53.152;5.846;2023-08-06T02:14:19;14.40;95.10
52787;DHT22;38661;53.152;5.846;2023-08-06T02:16:44;14.40;95.10
52787;DHT22;38661;53.152;5.846;2023-08-06T02:19:10;14.30;95.20
52787;DHT22;38661;53.152;5.846;2023-08-06T02:21:36;14.40;95.20
52787;DHT22;38661;53.152;5.846;2023-08-06T02:24:02;14.40;95.10
52787;DHT22;38661;53.152;5.846;2023-08-06T02:26:27;14.40;95.20
52787;DHT22;38661;53.152;5.846;2023-08-06T02:28:53;14.30;95.10
52787;DHT22;38661;53.152;5.846;2023-08-06T02:31:19;14.40;95.20
52787;DHT22;38661;53.152;5.846;2023-08-06T02:33:44;14.40;95.30
52787;DHT22;38661;53.152;5.846;2023-08-06T02:36:10;14.30;95.30
52787;DHT22;38661;53.152;5.846;2023-08-06T02:38:36;14.40;95.30
52787;DHT22;38661;53.152;5.846;2023-08-06T02:41:05;14.40;95.30
52787;DHT22;38661;53.152;5.846;2023-08-06T02:43:30;14.40;95.30
52787;DHT22;38661;53.152;5.846;2023-08-06T02:45:59;14.40;95.30
52787;DHT22;38661;53.152;5.846;2023-08-06T02:48:25;14.40;95.30
52787;DHT22;38661;53.152;5.846;2023-08-06T02:50:51;14.40;95.30
52787;DHT22;38661;53.152;5.846;2023-08-06T02:53:17;14.40;95.30
52787;DHT22;38661;53.152;5.846;2023-08-06T02:55:46;14.40;95.40
52787;DHT22;38661;53.152;5.846;2023-08-06T02:58:16;14.50;95.40
52787;DHT22;38661;53.152;5.846;2023-08-06T03:00:43;14.50;95.40
52787;DHT22;38661;53.152;5.846;2023-08-06T03:03:09;14.50;95.40
52787;DHT22;38661;53.152;5.846;2023-08-06T03:05:35;14.50;95.40
52787;DHT22;38661;53.152;5.846;2023-08-06T03:08:01;14.50;95.40
52787;DHT22;38661;53.152;5.846;2023-08-06T03:10:27;14.50;95.40
52787;DHT22;38661;53.152;5.846;2023-08-06T03:12:52;14.50;95.40
52787;DHT22;38661;53.152;5.846;2023-08-06T03:15:18;14.50;95.40
52787;DHT22;38661;53.152;5.846;2023-08-06T03:17:44;14.50;95.40
52787;DHT22;38661;53.152;5.846;2023-08-06T03:20:10;14.50;95.40
52787;DHT22;38661;53.152;5.846;2023-08-06T03:22:36;14.50;95.30
52787;DHT22;38661;53.152;5.846;2023-08-06T03:25:02;14.40;95.30
52787;DHT22;38661;53.152;5.846;2023-08-06T03:27:28;14.50;95.20
52787;DHT22;38661;53.152;5.846;2023-08-06T03:29:53;14.50;95.20
52787;DHT22;38661;53.152;5.846;2023-08-06T03:32:19;14.50;95.20
52787;DHT22;38661;53.152;5.846;2023-08-06T03:34:45;14.50;95.20
52787;DHT22;38661;53.152;5.846;2023-08-06T03:37:10;14.50;95.20
52787;DHT22;38661;53.152;5.846;2023-08-06T03:39:36;14.40;95.20
52787;DHT22;38661;53.152;5.846;2023-08-06T03:42:02;14.40;95.20
52787;DHT22;38661;53.152;5.846;2023-08-06T03:44:28;14.50;95.20
52787;DHT22;38661;53.152;5.846;2023-08-06T03:46:53;14.50;95.20
52787;DHT22;38661;53.152;5.846;2023-08-06T03:49:19;14.50;95.20
52787;DHT22;38661;53.152;5.846;2023-08-06T03:51:45;14.50;95.20
52787;DHT22;38661;53.152;5.846;2023-08-06T03:54:11;14.40;95.20
52787;DHT22;38661;53.152;5.846;2023-08-06T03:56:37;14.40;95.20
52787;DHT22;38661;53.152;5.846;2023-08-06T03:59:02;14.30;95.20
52787;DHT22;38661;53.152;5.846;2023-08-06T04:01:28;14.40;95.10
52787;DHT22;38661;53.152;5.846;2023-08-06T04:03:54;14.30;95.10
52787;DHT22;38661;53.152;5.846;2023-08-06T04:06:22;14.30;95.20
52787;DHT22;38661;53.152;5.846;2023-08-06T04:08:48;14.30;95.20
52787;DHT22;38661;53.152;5.846;2023-08-06T04:11:13;14.30;95.20
52787;DHT22;38661;53.152;5.846;2023-08-06T04:13:42;14.30;95.20
52787;DHT22;38661;53.152;5.846;2023-08-06T04:16:08;14.30;95.10
52787;DHT22;38661;53.152;5.846;2023-08-06T04:18:34;14.30;95.10
52787;DHT22;38661;53.152;5.846;2023-08-06T04:21:01;14.20;95.10
52787;DHT22;38661;53.152;5.846;2023-08-06T04:23:28;14.20;95.10
52787;DHT22;38661;53.152;5.846;2023-08-06T04:25:57;14.20;95.00
52787;DHT22;38661;53.152;5.846;2023-08-06T04:28:23;14.20;95.10
52787;DHT22;38661;53.152;5.846;2023-08-06T04:30:49;14.20;95.10
52787;DHT22;38661;53.152;5.846;2023-08-06T04:33:15;14.10;95.00
52787;DHT22;38661;53.152;5.846;2023-08-06T04:35:40;14.10;95.00
52787;DHT22;38661;53.152;5.846;2023-08-06T04:38:06;14.10;95.00
52787;DHT22;38661;53.152;5.846;2023-08-06T04:40:35;14.10;94.90
52787;DHT22;38661;53.152;5.846;2023-08-06T04:43:02;14.10;94.90
52787;DHT22;38661;53.152;5.846;2023-08-06T04:45:27;14.10;94.90
52787;DHT22;38661;53.152;5.846;2023-08-06T04:47:53;14.10;94.90
52787;DHT22;38661;53.152;5.846;2023-08-06T04:50:22;14.10;94.80
52787;DHT22;38661;53.152;5.846;2023-08-06T04:52:47;14.10;94.80
52787;DHT22;38661;53.152;5.846;2023-08-06T04:55:13;14.20;94.90
52787;DHT22;38661;53.152;5.846;2023-08-06T04:57:39;14.20;94.90
52787;DHT22;38661;53.152;5.846;2023-08-06T05:00:05;14.20;95.00
52787;DHT22;38661;53.152;5.846;2023-08-06T05:02:31;14.20;95.00
52787;DHT22;38661;53.152;5.846;2023-08-06T05:05:00;14.20;95.10
52787;DHT22;38661;53.152;5.846;2023-08-06T05:07:25;14.20;95.20
52787;DHT22;38661;53.152;5.846;2023-08-06T05:09:51;14.30;95.10
52787;DHT22;38661;53.152;5.846;2023-08-06T05:12:17;14.30;95.10
52787;DHT22;38661;53.152;5.846;2023-08-06T05:14:42;14.30;95.10
52787;DHT22;38661;53.152;5.846;2023-08-06T05:17:08;14.30;95.10
52787;DHT22;38661;53.152;5.846;2023-08-06T05:19:34;14.40;95.10
52787;DHT22;38661;53.152;5.846;2023-08-06T05:21:59;14.40;95.10
52787;DHT22;38661;53.152;5.846;2023-08-06T05:24:26;14.50;95.10
52787;DHT22;38661;53.152;5.846;2023-08-06T05:26:52;14.50;95.10
52787;DHT22;38661;53.152;5.846;2023-08-06T05:29:17;14.50;95.10
52787;DHT22;38661;53.152;5.846;2023-08-06T05:31:43;14.60;95.10
52787;DHT22;38661;53.152;5.846;2023-08-06T05:34:09;14.70;95.10
52787;DHT22;38661;53.152;5.846;2023-08-06T05:36:35;14.70;95.10
52787;DHT22;38661;53.152;5.846;2023-08-06T05:39:00;14.80;95.10
52787;DHT22;38661;53.152;5.846;2023-08-06T05:41:26;14.80;95.00
52787;DHT22;38661;53.152;5.846;2023-08-06T05:43:51;14.90;95.00
52787;DHT22;38661;53.152;5.846;2023-08-06T05:46:17;15.00;95.00
52787;DHT22;38661;53.152;5.846;2023-08-06T05:48:43;15.00;95.00
52787;DHT22;38661;53.152;5.846;2023-08-06T05:51:08;15.10;95.00
52787;DHT22;38661;53.152;5.846;2023-08-06T05:53:34;15.10;95.00
52787;DHT22;38661;53.152;5.846;2023-08-06T05:56:00;15.20;95.00
52787;DHT22;38661;53.152;5.846;2023-08-06T05:58:26;15.30;95.00
52787;DHT22;38661;53.152;5.846;2023-08-06T06:00:54;15.30;94.90
52787;DHT22;38661;53.152;5.846;2023-08-06T06:03:20;15.30;94.80
52787;DHT22;38661;53.152;5.846;2023-08-06T06:05:46;15.30;94.70
52787;DHT22;38661;53.152;5.846;2023-08-06T06:08:11;15.30;94.70
52787;DHT22;38661;53.152;5.846;2023-08-06T06:10:37;15.30;94.70
52787;DHT22;38661;53.152;5.846;2023-08-06T06:13:03;15.40;94.70
52787;DHT22;38661;53.152;5.846;2023-08-06T06:15:28;15.50;94.70
52787;DHT22;38661;53.152;5.846;2023-08-06T06:17:54;15.50;94.60
52787;DHT22;38661;53.152;5.846;2023-08-06T06:20:20;15.60;94.70
52787;DHT22;38661;53.152;5.846;2023-08-06T06:22:45;15.70;94.60
52787;DHT22;38661;53.152;5.846;2023-08-06T06:25:11;15.80;94.50
52787;DHT22;38661;53.152;5.846;2023-08-06T06:27:37;15.90;94.40
52787;DHT22;38661;53.152;5.846;2023-08-06T06:30:03;15.90;94.30
52787;DHT22;38661;53.152;5.846;2023-08-06T06:32:29;15.90;94.20
52787;DHT22;38661;53.152;5.846;2023-08-06T06:34:55;16.00;94.00
52787;DHT22;38661;53.152;5.846;2023-08-06T06:37:21;16.00;93.90
52787;DHT22;38661;53.152;5.846;2023-08-06T06:39:46;16.10;93.80
52787;DHT22;38661;53.152;5.846;2023-08-06T06:42:12;16.20;93.70
52787;DHT22;38661;53.152;5.846;2023-08-06T06:44:38;16.20;93.60
52787;DHT22;38661;53.152;5.846;2023-08-06T06:47:04;16.30;93.50
52787;DHT22;38661;53.152;5.846;2023-08-06T06:49:29;16.30;93.10
52787;DHT22;38661;53.152;5.846;2023-08-06T06:51:55;16.50;93.00
52787;DHT22;38661;53.152;5.846;2023-08-06T06:54:21;16.50;93.00
52787;DHT22;38661;53.152;5.846;2023-08-06T06:56:46;16.70;92.90
52787;DHT22;38661;53.152;5.846;2023-08-06T06:59:12;16.70;92.80
52787;DHT22;38661;53.152;5.846;2023-08-06T07:01:38;16.70;92.60
52787;DHT22;38661;53.152;5.846;2023-08-06T07:04:03;16.80;92.50
52787;DHT22;38661;53.152;5.846;2023-08-06T07:06:31;16.70;92.20
52787;DHT22;38661;53.152;5.846;2023-08-06T07:08:56;16.70;92.00
52787;DHT22;38661;53.152;5.846;2023-08-06T07:11:22;16.70;91.90
52787;DHT22;38661;53.152;5.846;2023-08-06T07:13:50;16.70;91.70
52787;DHT22;38661;53.152;5.846;2023-08-06T07:16:21;16.70;91.50
52787;DHT22;38661;53.152;5.846;2023-08-06T07:18:47;16.70;91.30
52787;DHT22;38661;53.152;5.846;2023-08-06T07:21:12;16.70;91.50
52787;DHT22;38661;53.152;5.846;2023-08-06T07:23:38;16.80;91.40
52787;DHT22;38661;53.152;5.846;2023-08-06T07:26:04;16.80;91.40
52787;DHT22;38661;53.152;5.846;2023-08-06T07:28:29;16.90;91.10
52787;DHT22;38661;53.152;5.846;2023-08-06T07:30:55;16.80;90.90
52787;DHT22;38661;53.152;5.846;2023-08-06T07:33:21;16.90;90.70
52787;DHT22;38661;53.152;5.846;2023-08-06T07:35:46;16.90;90.50
52787;DHT22;38661;53.152;5.846;2023-08-06T07:38:12;17.00;90.40
52787;DHT22;38661;53.152;5.846;2023-08-06T07:40:38;17.10;90.40
52787;DHT22;38661;53.152;5.846;2023-08-06T07:43:06;17.20;90.50
52787;DHT22;38661;53.152;5.846;2023-08-06T07:45:34;17.30;90.50
52787;DHT22;38661;53.152;5.846;2023-08-06T07:48:03;17.30;90.30
52787;DHT22;38661;53.152;5.846;2023-08-06T07:50:29;17.40;90.10
52787;DHT22;38661;53.152;5.846;2023-08-06T07:52:56;17.40;89.80
52787;DHT22;38661;53.152;5.846;2023-08-06T07:55:22;17.40;89.40
52787;DHT22;38661;53.152;5.846;2023-08-06T07:57:48;17.50;89.20
52787;DHT22;38661;53.152;5.846;2023-08-06T08:00:14;17.50;89.10
52787;DHT22;38661;53.152;5.846;2023-08-06T08:02:39;17.60;88.80
52787;DHT22;38661;53.152;5.846;2023-08-06T08:05:05;17.80;88.30
52787;DHT22;38661;53.152;5.846;2023-08-06T08:07:33;18.00;88.20
52787;DHT22;38661;53.152;5.846;2023-08-06T08:09:59;18.10;87.60
52787;DHT22;38661;53.152;5.846;2023-08-06T08:12:25;18.30;86.70
52787;DHT22;38661;53.152;5.846;2023-08-06T08:14:50;18.40;86.60
52787;DHT22;38661;53.152;5.846;2023-08-06T08:17:16;18.50;85.70
52787;DHT22;38661;53.152;5.846;2023-08-06T08:19:43;18.50;85.60
52787;DHT22;38661;53.152;5.846;2023-08-06T08:22:08;18.50;85.70
52787;DHT22;38661;53.152;5.846;2023-08-06T08:24:34;18.50;85.60
52787;DHT22;38661;53.152;5.846;2023-08-06T08:27:00;18.60;85.20
52787;DHT22;38661;53.152;5.846;2023-08-06T08:29:26;18.70;85.20
52787;DHT22;38661;53.152;5.846;2023-08-06T08:31:51;18.80;85.00
52787;DHT22;38661;53.152;5.846;2023-08-06T08:34:17;18.90;84.70
52787;DHT22;38661;53.152;5.846;2023-08-06T08:36:43;19.00;84.50
52787;DHT22;38661;53.152;5.846;2023-08-06T08:39:15;19.10;84.20
52787;DHT22;38661;53.152;5.846;2023-08-06T08:41:40;19.10;83.80
52787;DHT22;38661;53.152;5.846;2023-08-06T08:44:09;19.20;83.80
52787;DHT22;38661;53.152;5.846;2023-08-06T08:46:36;19.20;83.60
52787;DHT22;38661;53.152;5.846;2023-08-06T08:49:03;19.30;83.20
52787;DHT22;38661;53.152;5.846;2023-08-06T08:51:30;19.30;82.40
52787;DHT22;38661;53.152;5.846;2023-08-06T08:53:56;19.40;82.60
52787;DHT22;38661;53.152;5.846;2023-08-06T08:56:23;19.40;82.50
52787;DHT22;38661;53.152;5.846;2023-08-06T08:58:50;19.40;82.20
52787;DHT22;38661;53.152;5.846;2023-08-06T09:01:17;19.50;82.10
52787;DHT22;38661;53.152;5.846;2023-08-06T09:03:44;19.50;81.90
52787;DHT22;38661;53.152;5.846;2023-08-06T09:06:11;19.50;81.90
52787;DHT22;38661;53.152;5.846;2023-08-06T09:08:56;19.60;81.30
52787;DHT22;38661;53.152;5.846;2023-08-06T09:11:25;19.70;81.00
52787;DHT22;38661;53.152;5.846;2023-08-06T09:13:53;19.70;80.00
52787;DHT22;38661;53.152;5.846;2023-08-06T09:16:19;19.70;80.00
52787;DHT22;38661;53.152;5.846;2023-08-06T09:18:45;19.70;80.30
52787;DHT22;38661;53.152;5.846;2023-08-06T09:21:14;19.70;78.80
52787;DHT22;38661;53.152;5.846;2023-08-06T09:23:41;19.70;78.80
52787;DHT22;38661;53.152;5.846;2023-08-06T09:26:11;19.70;78.70
52787;DHT22;38661;53.152;5.846;2023-08-06T09:28:38;19.80;79.10
52787;DHT22;38661;53.152;5.846;2023-08-06T09:31:04;19.80;78.70
52787;DHT22;38661;53.152;5.846;2023-08-06T09:33:30;19.80;78.40
52787;DHT22;38661;53.152;5.846;2023-08-06T09:35:56;19.70;78.30
52787;DHT22;38661;53.152;5.846;2023-08-06T09:38:21;19.70;78.60
52787;DHT22;38661;53.152;5.846;2023-08-06T09:40:47;19.70;78.70
52787;DHT22;38661;53.152;5.846;2023-08-06T09:43:13;19.70;79.10
52787;DHT22;38661;53.152;5.846;2023-08-06T09:45:39;19.70;79.30
52787;DHT22;38661;53.152;5.846;2023-08-06T09:48:07;19.70;78.80
52787;DHT22;38661;53.152;5.846;2023-08-06T09:50:35;19.60;77.60
52787;DHT22;38661;53.152;5.846;2023-08-06T09:53:03;19.60;77.10
52787;DHT22;38661;53.152;5.846;2023-08-06T09:55:29;19.70;77.60
52787;DHT22;38661;53.152;5.846;2023-08-06T09:57:55;19.80;77.70
52787;DHT22;38661;53.152;5.846;2023-08-06T10:00:22;19.90;77.50
52787;DHT22;38661;53.152;5.846;2023-08-06T10:02:48;20.00;77.10
52787;DHT22;38661;53.152;5.846;2023-08-06T10:05:16;20.20;77.10
52787;DHT22;38661;53.152;5.846;2023-08-06T10:07:43;20.40;76.70
52787;DHT22;38661;53.152;5.846;2023-08-06T10:10:10;20.50;76.00
52787;DHT22;38661;53.152;5.846;2023-08-06T10:12:40;20.40;76.20
52787;DHT22;38661;53.152;5.846;2023-08-06T10:15:11;20.40;75.90
52787;DHT22;38661;53.152;5.846;2023-08-06T10:17:38;20.40;76.00
52787;DHT22;38661;53.152;5.846;2023-08-06T10:20:06;20.30;76.70
52787;DHT22;38661;53.152;5.846;2023-08-06T10:22:33;20.10;76.90
52787;DHT22;38661;53.152;5.846;2023-08-06T10:25:00;19.90;77.30
52787;DHT22;38661;53.152;5.846;2023-08-06T10:32:58;19.70;78.70
52787;DHT22;38661;53.152;5.846;2023-08-06T10:40:33;19.40;79.10
52787;DHT22;38661;53.152;5.846;2023-08-06T10:43:00;19.40;79.10
52787;DHT22;38661;53.152;5.846;2023-08-06T10:45:26;19.40;79.30
52787;DHT22;38661;53.152;5.846;2023-08-06T10:47:55;19.30;79.40
52787;DHT22;38661;53.152;5.846;2023-08-06T10:50:24;19.30;79.60
52787;DHT22;38661;53.152;5.846;2023-08-06T10:52:50;19.30;79.50
52787;DHT22;38661;53.152;5.846;2023-08-06T10:55:24;19.30;79.50
52787;DHT22;38661;53.152;5.846;2023-08-06T10:57:50;19.30;79.20
52787;DHT22;38661;53.152;5.846;2023-08-06T11:00:16;19.40;79.00
52787;DHT22;38661;53.152;5.846;2023-08-06T11:02:42;19.40;78.70
52787;DHT22;38661;53.152;5.846;2023-08-06T11:05:10;19.40;78.50
52787;DHT22;38661;53.152;5.846;2023-08-06T11:07:37;19.40;78.80
52787;DHT22;38661;53.152;5.846;2023-08-06T11:10:04;19.40;79.20
52787;DHT22;38661;53.152;5.846;2023-08-06T11:12:31;19.50;79.10
52787;DHT22;38661;53.152;5.846;2023-08-06T11:14:57;19.50;79.60
52787;DHT22;38661;53.152;5.846;2023-08-06T11:17:23;19.60;79.80
52787;DHT22;38661;53.152;5.846;2023-08-06T11:19:49;19.70;79.60
52787;DHT22;38661;53.152;5.846;2023-08-06T11:22:16;19.70;79.30
52787;DHT22;38661;53.152;5.846;2023-08-06T11:24:43;19.80;79.10
52787;DHT22;38661;53.152;5.846;2023-08-06T11:27:15;19.90;79.40
52787;DHT22;38661;53.152;5.846;2023-08-06T11:29:42;19.90;79.40
52787;DHT22;38661;53.152;5.846;2023-08-06T11:32:09;19.90;79.50
52787;DHT22;38661;53.152;5.846;2023-08-06T11:34:36;20.00;79.30
52787;DHT22;38661;53.152;5.846;2023-08-06T11:37:06;20.00;78.90
52787;DHT22;38661;53.152;5.846;2023-08-06T11:39:36;20.00;78.60
52787;DHT22;38661;53.152;5.846;2023-08-06T11:42:06;20.00;78.50
52787;DHT22;38661;53.152;5.846;2023-08-06T11:44:34;20.00;78.70
52787;DHT22;38661;53.152;5.846;2023-08-06T11:47:01;20.00;78.80
52787;DHT22;38661;53.152;5.846;2023-08-06T11:49:40;20.00;79.00
52787;DHT22;38661;53.152;5.846;2023-08-06T11:52:20;20.10;79.00
52787;DHT22;38661;53.152;5.846;2023-08-06T11:55:08;20.10;78.70
52787;DHT22;38661;53.152;5.846;2023-08-06T11:57:38;20.20;78.60
52787;DHT22;38661;53.152;5.846;2023-08-06T12:00:09;20.20;78.20
52787;DHT22;38661;53.152;5.846;2023-08-06T12:02:35;20.10;77.90
52787;DHT22;38661;53.152;5.846;2023-08-06T12:05:24;20.20;77.90
52787;DHT22;38661;53.152;5.846;2023-08-06T12:07:53;20.20;77.90
52787;DHT22;38661;53.152;5.846;2023-08-06T12:10:22;20.20;77.60
52787;DHT22;38661;53.152;5.846;2023-08-06T12:12:49;20.20;77.10
52787;DHT22;38661;53.152;5.846;2023-08-06T12:15:16;20.20;76.90
52787;DHT22;38661;53.152;5.846;2023-08-06T12:17:42;20.30;77.00
52787;DHT22;38661;53.152;5.846;2023-08-06T12:20:08;20.30;77.10
52787;DHT22;38661;53.152;5.846;2023-08-06T12:22:35;20.40;77.30
52787;DHT22;38661;53.152;5.846;2023-08-06T12:25:02;20.40;77.40
52787;DHT22;38661;53.152;5.846;2023-08-06T12:27:34;20.40;77.60
52787;DHT22;38661;53.152;5.846;2023-08-06T12:30:00;20.30;77.10
52787;DHT22;38661;53.152;5.846;2023-08-06T12:32:26;20.30;76.90
52787;DHT22;38661;53.152;5.846;2023-08-06T12:34:52;20.20;76.90
52787;DHT22;38661;53.152;5.846;2023-08-06T12:37:18;20.10;76.50
52787;DHT22;38661;53.152;5.846;2023-08-06T12:39:43;20.00;77.00
52787;DHT22;38661;53.152;5.846;2023-08-06T12:42:09;20.00;77.00
52787;DHT22;38661;53.152;5.846;2023-08-06T12:44:36;20.00;77.50
52787;DHT22;38661;53.152;5.846;2023-08-06T12:47:01;19.90;77.80
52787;DHT22;38661;53.152;5.846;2023-08-06T12:49:27;20.00;77.90
52787;DHT22;38661;53.152;5.846;2023-08-06T12:51:54;20.00;77.10
52787;DHT22;38661;53.152;5.846;2023-08-06T12:54:20;20.00;77.20
52787;DHT22;38661;53.152;5.846;2023-08-06T12:56:47;20.00;76.90
52787;DHT22;38661;53.152;5.846;2023-08-06T12:59:14;20.00;76.80
52787;DHT22;38661;53.152;5.846;2023-08-06T13:01:40;20.00;76.80
52787;DHT22;38661;53.152;5.846;2023-08-06T13:04:06;20.20;76.80
52787;DHT22;38661;53.152;5.846;2023-08-06T13:06:32;20.20;76.60
52787;DHT22;38661;53.152;5.846;2023-08-06T13:09:09;20.20;76.30
52787;DHT22;38661;53.152;5.846;2023-08-06T13:11:36;20.50;75.80
52787;DHT22;38661;53.152;5.846;2023-08-06T13:14:07;20.50;75.60
52787;DHT22;38661;53.152;5.846;2023-08-06T13:16:33;20.70;75.10
52787;DHT22;38661;53.152;5.846;2023-08-06T13:18:59;20.70;74.30
52787;DHT22;38661;53.152;5.846;2023-08-06T13:22:17;20.90;73.90
52787;DHT22;38661;53.152;5.846;2023-08-06T13:24:19;21.20;73.50
52787;DHT22;38661;53.152;5.846;2023-08-06T13:26:44;21.50;72.70
52787;DHT22;38661;53.152;5.846;2023-08-06T13:29:10;21.70;71.70
52787;DHT22;38661;53.152;5.846;2023-08-06T13:31:38;21.60;70.90
52787;DHT22;38661;53.152;5.846;2023-08-06T13:34:03;21.50;70.90
52787;DHT22;38661;53.152;5.846;2023-08-06T13:36:30;21.40;71.00
52787;DHT22;38661;53.152;5.846;2023-08-06T13:38:56;21.40;71.60
52787;DHT22;38661;53.152;5.846;2023-08-06T13:41:22;21.30;71.70
52787;DHT22;38661;53.152;5.846;2023-08-06T13:43:48;21.20;72.10
52787;DHT22;38661;53.152;5.846;2023-08-06T13:46:15;21.00;72.30
52787;DHT22;38661;53.152;5.846;2023-08-06T13:48:43;20.80;72.80
52787;DHT22;38661;53.152;5.846;2023-08-06T13:51:10;20.60;73.30
52787;DHT22;38661;53.152;5.846;2023-08-06T13:53:36;20.40;73.80
52787;DHT22;38661;53.152;5.846;2023-08-06T13:56:02;20.30;74.00
52787;DHT22;38661;53.152;5.846;2023-08-06T13:58:28;20.20;74.30
52787;DHT22;38661;53.152;5.846;2023-08-06T14:00:54;20.00;75.00
52787;DHT22;38661;53.152;5.846;2023-08-06T14:03:20;20.00;74.90
52787;DHT22;38661;53.152;5.846;2023-08-06T14:05:46;19.90;74.60
52787;DHT22;38661;53.152;5.846;2023-08-06T14:08:12;19.80;74.80
52787;DHT22;38661;53.152;5.846;2023-08-06T14:10:39;19.60;74.80
52787;DHT22;38661;53.152;5.846;2023-08-06T14:13:04;19.50;75.80
52787;DHT22;38661;53.152;5.846;2023-08-06T14:15:30;19.60;77.70
52787;DHT22;38661;53.152;5.846;2023-08-06T14:17:56;19.50;78.80
52787;DHT22;38661;53.152;5.846;2023-08-06T14:20:22;19.50;79.70
52787;DHT22;38661;53.152;5.846;2023-08-06T14:22:48;19.40;80.50
52787;DHT22;38661;53.152;5.846;2023-08-06T14:25:14;19.40;81.00
52787;DHT22;38661;53.152;5.846;2023-08-06T14:27:40;19.30;80.90
52787;DHT22;38661;53.152;5.846;2023-08-06T14:30:07;19.30;80.90
52787;DHT22;38661;53.152;5.846;2023-08-06T14:32:33;19.30;80.90
52787;DHT22;38661;53.152;5.846;2023-08-06T14:34:59;19.30;80.30
52787;DHT22;38661;53.152;5.846;2023-08-06T14:37:25;19.30;79.80
52787;DHT22;38661;53.152;5.846;2023-08-06T14:39:51;19.30;80.00
52787;DHT22;38661;53.152;5.846;2023-08-06T14:42:17;19.40;79.60
52787;DHT22;38661;53.152;5.846;2023-08-06T14:44:43;19.40;78.20
52787;DHT22;38661;53.152;5.846;2023-08-06T14:47:09;19.40;78.20
52787;DHT22;38661;53.152;5.846;2023-08-06T14:49:34;19.50;78.20
52787;DHT22;38661;53.152;5.846;2023-08-06T14:52:00;19.60;77.60
52787;DHT22;38661;53.152;5.846;2023-08-06T14:54:27;19.60;77.30
52787;DHT22;38661;53.152;5.846;2023-08-06T14:56:53;19.50;77.40
52787;DHT22;38661;53.152;5.846;2023-08-06T14:59:19;19.60;77.30
52787;DHT22;38661;53.152;5.846;2023-08-06T15:01:44;19.60;77.20
52787;DHT22;38661;53.152;5.846;2023-08-06T15:04:10;19.60;77.30
52787;DHT22;38661;53.152;5.846;2023-08-06T15:06:36;19.60;77.90
52787;DHT22;38661;53.152;5.846;2023-08-06T15:09:01;19.50;78.10
52787;DHT22;38661;53.152;5.846;2023-08-06T15:11:27;19.50;78.20
52787;DHT22;38661;53.152;5.846;2023-08-06T15:13:53;19.40;78.70
52787;DHT22;38661;53.152;5.846;2023-08-06T15:16:19;19.50;78.90
52787;DHT22;38661;53.152;5.846;2023-08-06T15:18:44;19.50;79.00
52787;DHT22;38661;53.152;5.846;2023-08-06T15:21:10;19.60;79.10
52787;DHT22;38661;53.152;5.846;2023-08-06T15:23:36;19.70;78.70
52787;DHT22;38661;53.152;5.846;2023-08-06T15:26:02;19.70;78.10
52787;DHT22;38661;53.152;5.846;2023-08-06T15:28:28;19.70;77.50
52787;DHT22;38661;53.152;5.846;2023-08-06T15:30:54;19.60;77.60
52787;DHT22;38661;53.152;5.846;2023-08-06T15:33:20;19.50;78.00
52787;DHT22;38661;53.152;5.846;2023-08-06T15:35:47;19.50;78.70
52787;DHT22;38661;53.152;5.846;2023-08-06T15:38:12;19.50;78.90
52787;DHT22;38661;53.152;5.846;2023-08-06T15:40:38;19.40;78.50
52787;DHT22;38661;53.152;5.846;2023-08-06T15:43:04;19.40;78.40
52787;DHT22;38661;53.152;5.846;2023-08-06T15:45:30;19.30;78.10